Phoenix, AZ (85071)

11:14 PM MST on May 06, 2015 (GMT -0700)
Cave Creek Golf Course | | Change Station
CLOSE
Current Station
Personal Weather Station
Location: Phoenix, AZ
Elevation: 1306 ft
Nearby Weather Stations

Elev 1306 ft 33.61 °N, 112.11 °W | Updated 9 seconds ago

Clear
Clear
71.2 °F
Feels Like 77 °F
N
5.1
Wind Variable Wind from West
Gusts 9.2 mph

Today
High -- | Low -- °F
--% Chance of Precip.
Yesterday
High -- | Low -- °F
Precip. -- in
5:35 AM 7:15 PM
Waning Gibbous, 90% visible
Pressure 29.69 in
Visibility 10.0 miles
Clouds Clear
Heat Index 77 °F
Dew Point 42 °F
Humidity 35%
Rainfall in
Snow Depth Not available.
UV 0 out of 12
Pollen 7.50 out of 12
Air Quality Not available.
Flu Activity Local Activity
METAR KDVT 070453Z 23010KT 10SM CLR 23/01 A2975 RMK AO2 SLP053 T02280006

More Conditions Fewer Conditions

Pressure 29.69 in
Visibility 10.0 miles
Clouds Clear
Heat Index 77 °F
Dew Point 42 °F
Humidity 35%
Rainfall in
Snow Depth Not available.
UV 0 out of 12
Pollen 7.50 out of 12
Air Quality Not available.
Flu Activity Local Activity
METAR KDVT 070453Z 23010KT 10SM CLR 23/01 A2975 RMK AO2 SLP053 T02280006

More Conditions Fewer Conditions

10-Day Weather Forecast

Almanac

Astronomy

May. 06, 2015 Rise Set
Actual Time
Civil Twilight
Nautical Twilight
Astronomical Twilight
Moon
Length of Visible Light
Length of Day
Tomorrow will be .
, % of the Moon is Illuminated

Today's Extremes

State Highs State Lows

Community

WunderPhotos

Upload Photos

1,819,126 photos uploaded!

WunderBlogs® & News

Nearby

Air Quality

  Air Quality AQ Index Pollutant
Not available.

Snow Depth

Station Depth Elevation

Earthquake Activity

City Distance Mag. Time & Date
Minimum magnitude displayed is 2.5.

Coastal Water Temperatures

Place Temperature

Stations

Nearby Weather Stations

Station Location Temp. Windchill Dew Point Humidity Wind Precip. Elev Updated Type